Impacts METAR Board
IDs:

KSFO - San Francisco Intl, CA, US

Updated at: 2100 UTC 19 May 2019
Potential Impact None Slight Moderate High
Time 19/09Z 19/10Z 19/11Z 19/12Z 19/13Z 19/14Z 19/15Z 19/16Z 19/17Z 19/18Z 19/19Z 19/20Z 19/21Z
Temp55 53 53 54 54 50 54 55 59 59 59 60 58
Dewpt50 49 48 48 49 45 45 48 48 45 45 45 50
Altim29.76 29.75 29.74 29.71 29.72 29.73 29.74 29.77 29.77 29.78 29.79 29.80 29.82
VIS10 10 10 10 5 8 9 10 10 10 10 10 10
CIG-- -- -- 40 34 47 120 60 70 37 55 60 60
CoverSCTFEWFEWBKNOVCOVCBKNBKNBKNBKNBKNBKNBKN
FltCatVFRVFRVFRVFRMVFRVFRVFRVFRVFRVFRVFRVFRVFR
WX--------RA-RA--------------
WDir240220190140180000260270260230210
WSpd6 6 8 8 9 0 4 4 12 13 7 10 10
WGst-- -- -- -- -- -- -- -- -- 17 -- -- 15
Raw hourly METARs
KSFO 190856Z 24006KT 10SM SCT060 13/10 A2976 RMK AO2 SLP076 60025 T01280100 56005
KSFO 190956Z 22006KT 10SM FEW030 12/09 A2975 RMK AO2 SLP072 T01170094
KSFO 191056Z 19008KT 10SM FEW030 12/09 A2974 RMK AO2 SLP069 T01170089
KSFO 191156Z 14008KT 10SM BKN040 BKN048 BKN065 12/09 A2971 RMK AO2 SLP062 60025 70084 T01220089 10133 20111 58014
KSFO 191256Z 18009KT 5SM RA FEW025 BKN034 OVC060 12/09 A2972 RMK AO2 RAB14 SLP062 P0005 T01220094
KSFO 191356Z 00000KT 8SM -RA FEW021 BKN047 OVC055 10/07 A2973 RMK AO2 PK WND 20027/1332 LTG DSNT SE SLP066 P0019 T01000072
KSFO 191456Z VRB04KT 9SM FEW026 SCT039 BKN120 12/07 A2974 RMK AO2 RAE01 SLP072 P0000 60024 T01220072 53010
KSFO 191556Z VRB04KT 10SM FEW021 BKN060 BKN200 13/09 A2977 RMK AO2 SLP079 T01280089
KSFO 191656Z 26012KT 10SM FEW022 SCT055 BKN070 15/09 A2977 RMK AO2 SLP081 T01500089
KSFO 191756Z 27013G17KT 10SM FEW026 BKN037 BKN070 15/07 A2978 RMK AO2 SLP084 60024 T01500072 10156 20100 51012
KSFO 191856Z 26007KT 230V300 10SM FEW026 BKN055 BKN070 15/07 A2979 RMK AO2 SLP087 T01500072
KSFO 191956Z 23010KT 10SM FEW026 BKN060 BKN110 16/07 A2980 RMK AO2 SLP092 T01560072
KSFO 192056Z 21010G15KT 10SM FEW010 BKN060 BKN160 14/10 A2982 RMK AO2 RAB15E42 SLP096 P0003 60003 T01440100 53013



Page loaded:  21:11 UTC  |   02:11 PM Pacific  |   03:11 PM Mountain  |   04:11 PM Central  |   05:11 PM Eastern

 

ADVISORIES

FORECASTS

FORECASTS

OBSERVATIONS

USER TOOLS

ABOUT US